createdAt,value
2023-04-05T18:24:33.218Z,2.59
2023-04-05T18:29:33.171Z,2.90
2023-04-05T18:35:03.148Z,4.40
2023-04-05T18:40:03.093Z,3.40
2023-04-05T18:45:03.023Z,4.30
2023-04-05T18:50:02.967Z,4.50
2023-04-05T18:55:02.887Z,5.09
2023-04-05T19:00:02.824Z,4.40
2023-04-05T19:05:02.776Z,5.09
2023-04-05T19:10:02.706Z,4.90
2023-04-05T19:15:02.707Z,5.59
2023-04-05T19:20:02.564Z,5.90
2023-04-05T19:25:02.500Z,5.59
2023-04-05T19:30:02.445Z,5.59
2023-04-05T19:35:02.364Z,5.50
2023-04-05T19:40:02.293Z,7.09
2023-04-05T19:45:02.223Z,6.50
2023-04-05T19:50:02.179Z,5.80
2023-04-05T19:55:02.085Z,6.19
2023-04-05T20:00:02.019Z,6.40
2023-04-05T20:05:01.945Z,6.69
2023-04-05T20:10:01.886Z,5.40
2023-04-05T20:15:01.821Z,5.19
2023-04-05T20:20:01.825Z,5.19
2023-04-05T20:25:01.687Z,5.80
2023-04-05T20:30:01.629Z,5.09
2023-04-05T20:35:01.584Z,5.30
2023-04-05T20:40:01.535Z,4.69
2023-04-05T20:45:01.435Z,5.50
2023-04-05T20:50:01.362Z,4.40
2023-04-05T20:55:01.294Z,4.09
2023-04-05T21:00:01.223Z,4.40
2023-04-05T21:05:01.152Z,3.70
2023-04-05T21:10:01.092Z,3.50
2023-04-05T21:15:01.030Z,3.70
2023-04-05T21:20:00.960Z,3.50
2023-04-05T21:25:00.883Z,4.09
2023-04-05T21:30:00.833Z,4.09
2023-04-05T21:35:00.754Z,4.09
2023-04-05T21:40:00.700Z,4.09
2023-04-05T21:45:00.636Z,3.70
2023-04-05T21:50:00.568Z,4.30
2023-04-05T21:55:00.497Z,4.40
2023-04-05T22:00:00.443Z,4.09
2023-04-05T22:05:00.375Z,4.69
2023-04-05T22:10:00.315Z,4.19
2023-04-05T22:15:00.244Z,4.59
2023-04-05T22:20:00.184Z,4.19
2023-04-05T22:25:00.125Z,3.79
2023-04-05T22:30:00.088Z,4.00
2023-04-05T22:34:59.988Z,4.09
2023-04-05T22:39:59.925Z,3.50
2023-04-05T22:44:59.854Z,3.59
2023-04-05T22:49:59.793Z,3.59
2023-04-05T22:54:59.720Z,3.59
2023-04-05T22:59:59.671Z,3.00
2023-04-05T23:04:59.642Z,3.09
2023-04-05T23:09:59.529Z,3.90
2023-04-05T23:14:59.456Z,3.70
2023-04-05T23:19:59.420Z,3.79
2023-04-05T23:24:59.326Z,3.50
2023-04-05T23:29:59.267Z,3.09
2023-04-05T23:34:59.203Z,3.59
2023-04-05T23:39:59.151Z,3.20
2023-04-05T23:44:59.063Z,3.90
2023-04-05T23:49:59.012Z,3.59
2023-04-05T23:54:58.934Z,3.40
2023-04-05T23:59:58.879Z,4.09
